CYKA

Kamloops Airport

Kamloops, British Columbia, Canada
METAR CYKA 220200Z 10008KT 40SM FEW011 SCT020 BKN090 BKN210 12/09 A2984 RMK SF1SC3AC2CI1 SLP112 DENSITY ALT 1200FT
Observed Flight Rules
Sep-22 @ 02:00 UTC (an hour ago) Visual Flight Rules
Wind Visibility Clouds
100° at 8 knots 40 miles
Temperatures Readings
Current 12°C / 54°F
Dewpoint 9°C / 48°F
Humidity 82%
Altimeter 29.84" Hg
Pressure 1011.2 hPa
Elevation 346
METAR CYKA 220200Z 10008KT 40SM FEW011 SCT020 BKN090 BKN210 12/09 A2984 RMK SF1SC3AC2CI1 SLP112 DENSITY ALT 1200FT
Observed Flight Rules
Sep-22 @ 02:00 UTC
(an hour ago)
VFR
Wind Visibility
100° at 8 knots 40 miles
Clouds
Temperature Dewpoint
12°C / 54°F 9°C / 48°F
Humidity Altimeter Pressure
82% 29.84" Hg 1011.2 hPa